This is the latest recevied weather packets stored in our database for station/object OK1FET-14. If no packets are shown the sender has not sent any weather packets the latest 10 day(s).
| Time | Temp. | Humidity | Pressure | Rain* | Wind** | Luminosity | Snow |
|---|---|---|---|---|---|---|---|
| 1788104534 | 25.56° C | 41% | 1015.8 hPa | - | - | - | - |
| 1788104253 | 25° C | 41% | 1015.8 hPa | - | - | - | - |
| 1788104252 | 25° C | 41% | 1015.8 hPa | - | - | - | - |
| 1788103971 | 24.44° C | 41% | 1015.9 hPa | - | - | - | - |
| 1788103971 | 24.44° C | 41% | 1015.9 hPa | - | - | - | - |
| 1788103690 | 24.44° C | 42% | 1015.9 hPa | - | - | - | - |
| 1788103690 | 24.44° C | 42% | 1015.9 hPa | - | - | - | - |
| 1788103409 | 25° C | 41% | 1015.8 hPa | - | - | - | - |
| 1788103409 | 25° C | 41% | 1015.8 hPa | - | - | - | - |
| 1788103409 | 25° C | 41% | 1015.8 hPa | - | - | - | - |
| 1788103127 | 26.67° C | 39% | 1015.9 hPa | - | - | - | - |
| 1788103127 | 26.67° C | 39% | 1015.9 hPa | - | - | - | - |
| 1788103127 | 26.67° C | 39% | 1015.9 hPa | - | - | - | - |
| 1788102846 | 26.11° C | 40% | 1015.9 hPa | - | - | - | - |
| 1788102846 | 26.11° C | 40% | 1015.9 hPa | - | - | - | - |
| 1788102846 | 26.11° C | 40% | 1015.9 hPa | - | - | - | - |
| 1788102565 | 25.56° C | 42% | 1015.9 hPa | - | - | - | - |
| 1788102565 | 25.56° C | 42% | 1015.9 hPa | - | - | - | - |
| 1788102284 | 23.89° C | 43% | 1016 hPa | - | - | - | - |
| 1788102284 | 23.89° C | 43% | 1016 hPa | - | - | - | - |
| 1788102283 | 23.89° C | 43% | 1016 hPa | - | - | - | - |
| 1788102002 | 23.89° C | 45% | 1016 hPa | - | - | - | - |
| 1788102002 | 23.89° C | 45% | 1016 hPa | - | - | - | - |
| 1788102002 | 23.89° C | 45% | 1016 hPa | - | - | - | - |
| 1788101721 | 25.56° C | 42% | 1016.1 hPa | - | - | - | - |
* Rain since midnight (hover to see other rain measurements)
** Current wind speed in m/s (hover to see current wind gust speed)